Landels-Hill Big Creek Reserve Entrance, California Weather observations

Data are for 10 minute period ending at time listed.
 Day   Time   Solar   Ave.   Ave.  Ave.  Vector  Max.   Baro.   Total    
  of    of     Rad.   Air    Rel.  Wind   Wind   Wind  Press.  Precip.   
Year   Day            Temp.  Hum.  Speed  Dir.   Gust                    
2017   (PST)  Kw/m2    F      %     mph   deg.    mph    mb.     in.     
-------------------------------------------------------------------------
 144   17:10   0.07   57.1    78    0.2   221     1.2   1006.4    0.00 
 144   17:20   0.06   56.9    78    0.6   204     1.4   1006.4    0.00 
 144   17:30   0.05   56.4    78    0.4   212     1.6   1006.3    0.00 
 144   17:40   0.05   56.2    79    0.5   206     1.3   1006.2    0.00 
 144   17:50   0.05   56.0    80    0.4   209     1.5   1006.2    0.00 
 144   18:00   0.04   56.0    80    0.2   233     1.5   1006.1    0.00 
 144   18:10   0.03   55.6    81    0.7   209     2.0   1006.2    0.00 
 144   18:20   0.03   55.2    83    0.7   218     2.0   1006.1    0.00 
 144   18:30   0.02   54.9    84    0.4   275     1.3   1006.1    0.00 
 144   18:40   0.01   54.8    84    0.1   223     0.8   1006.1    0.00 
 144   18:50   0.01   55.0    84    0.0   252     0.7   1006.0    0.00 
 144   19:00   0.01   55.0    84    0.0     0     0.0   1006.0    0.00 
 144   19:10   0.01   55.0    84    0.1    10     1.1   1006.0    0.00 
 144   19:20   0.01   55.1    84    0.0     0     0.0   1006.0    0.00 
 144   19:30   0.01   55.0    84    0.5   167     2.9   1006.1    0.00 
 144   19:40   0.01   54.6    84    0.1   238     1.3   1006.2    0.00 
 144   19:50   0.01   54.6    85    0.0     0     0.0   1006.2    0.00 
 144   20:00   0.01   54.7    85    0.0   282     0.1   1006.2    0.00 
 144   20:10   0.01   54.6    85    0.2   291     2.0   1006.4    0.00 
 144   20:20   0.01   54.5    85    0.1    17     0.6   1006.4    0.00 
 144   20:30   0.01   54.5    85    0.7    38     1.8   1006.4    0.00 
 144   20:40   0.01   54.6    86    0.7   358     2.0   1006.3    0.00 
 144   20:50   0.01   54.7    86    0.8   359     2.3   1006.4    0.00 
 144   21:00   0.01   54.6    86    1.0    16     1.7   1006.4    0.00 
 144   21:10   0.01   54.8    86    0.8    28     2.0   1006.5    0.00 
 144   21:20   0.01   54.7    86    1.2   353     2.9   1006.5    0.00 
 144   21:30   0.01   54.8    85    0.6    15     2.2   1006.5    0.00 
 144   21:40   0.01   54.9    84    0.9    30     2.4   1006.6    0.00 
 144   21:50   0.01   54.9    85    0.6    26     2.4   1006.6    0.00 
 144   22:00   0.01   54.8    85    0.6    33     1.5   1006.6    0.00 
 144   22:10   0.01   54.8    85    0.7    52     2.2   1006.6    0.00 
 144   22:20   0.01   54.8    85    0.4    64     1.8   1006.5    0.00 
 144   22:30   0.01   54.7    85    0.3    62     1.7   1006.5    0.00 
 144   22:40   0.01   54.9    85    0.1    45     1.1   1006.5    0.00 
 144   22:50   0.01   54.8    85    0.1    21     1.2   1006.4    0.00 
 144   23:00   0.01   54.7    85    0.2    31     1.1   1006.4    0.00 
 144   23:10   0.01   54.7    85    0.0     0     0.0   1006.4    0.00 
 144   23:20   0.01   54.6    85    0.1    22     1.2   1006.4    0.00 
 144   23:30   0.01   54.5    84    0.5   278     2.6   1006.4    0.00 
 144   23:40   0.01   54.5    82    0.1   304     1.2   1006.4    0.00 
 144   23:50   0.01   54.5    82    0.2    43     1.1   1006.4    0.00 
 145    0:00   0.01   54.6    81    0.5    20     1.8   1006.5    0.00 
 145    0:10   0.01   54.6    81    0.4    37     1.7   1006.5    0.00 
 145    0:20   0.01   54.6    81    0.4    15     1.5   1006.6    0.00 
 145    0:30   0.01   54.5    82    1.1    15     2.9   1006.5    0.00 
 145    0:40   0.01   54.2    83    0.8    70     2.0   1006.4    0.00 
 145    0:50   0.01   54.3    83    1.2    25     2.7   1006.4    0.00 
 145    1:00   0.01   54.2    84    1.6     4     2.5   1006.3    0.00 
 145    1:10   0.01   54.0    85    1.7    24     3.0   1006.3    0.00 
 145    1:20   0.01   54.0    84    1.6    10     3.5   1006.2    0.00 
 145    1:30   0.01   54.0    84    2.3   358     4.1   1006.2    0.00 
 145    1:40   0.01   54.0    84    1.8    20     3.4   1006.3    0.00 
 145    1:50   0.01   53.9    84    2.3     7     4.8   1006.4    0.00 
 145    2:00   0.01   53.9    84    2.0   357     4.5   1006.3    0.00 
 145    2:10   0.01   53.9    83    2.9    23     5.0   1006.3    0.00 
 145    2:20   0.01   53.9    83    2.4   358     4.2   1006.2    0.00 
 145    2:30   0.01   54.0    81    2.8    32     4.8   1006.1    0.00 
 145    2:40   0.01   54.2    80    3.0    13     5.6   1006.1    0.00 
 145    2:50   0.01   54.0    81    3.1     9     5.0   1006.1    0.00 
 145    3:00   0.01   53.9    82    2.8   357     5.0   1006.2    0.00 
 145    3:10   0.01   53.9    82    3.2     9     6.4   1006.1    0.00 
 145    3:20   0.01   53.9    82    2.3   359     4.6   1006.0    0.00 
 145    3:30   0.01   53.8    82    2.8    14     5.2   1006.0    0.00 
 145    3:40   0.01   53.9    82    2.6     2     6.1   1006.0    0.00 
 145    3:50   0.01   53.9    82    1.6    13     3.7   1006.0    0.00 
 145    4:00   0.01   53.8    82    2.1     9     5.1   1006.1    0.00 
 145    4:10   0.01   53.8    82    0.7    57     2.6   1006.1    0.00 
 145    4:20   0.01   53.8    82    1.6    60     4.5   1006.2    0.00 
 145    4:30   0.01   53.9    82    2.0    21     4.2   1006.1    0.00 
 145    4:40   0.01   53.9    82    2.6     6     5.5   1006.1    0.00 
 145    4:50   0.01   53.8    82    2.3   352     4.7   1006.1    0.00 
 145    5:00   0.01   53.9    82    2.6     2     6.1   1006.1    0.00 
 145    5:10   0.01   53.9    82    1.8   357     3.9   1006.1    0.00 
 145    5:20   0.01   53.9    82    1.3    10     4.6   1006.1    0.00 
 145    5:30   0.01   53.9    81    1.1    58     5.2   1006.1    0.00 
 145    5:40   0.01   54.2    81    0.7   302     3.4   1006.2    0.00 
 145    5:50   0.02   54.5    82    0.3     1     1.7   1006.2    0.00 
 145    6:00   0.03   54.6    83    0.3    14     2.1   1006.2    0.00 
 145    6:10   0.03   54.5    84    1.0   277     4.2   1006.2    0.00 
 145    6:20   0.03   54.5    84    1.0   266     6.4   1006.3    0.00 
 145    6:30   0.04   54.6    84    0.9   277     6.9   1006.5    0.00 
 145    6:40   0.05   54.8    84    0.9   274     3.1   1006.7    0.00 
 145    6:50   0.05   54.9    85    1.1   254     4.2   1006.6    0.00 
 145    7:00   0.04   54.8    84    1.7   280     7.4   1006.6    0.00 
 145    7:10   0.05   54.9    85    0.7   260     5.6   1006.7    0.00 
 145    7:20   0.05   55.0    85    0.6   271     2.5   1006.7    0.00 
 145    7:30   0.06   55.3    85    0.4     7     1.3   1006.7    0.00 
 145    7:40   0.08   55.3    85    1.5   264     4.5   1006.7    0.00 
 145    7:50   0.09   55.3    85    1.0   271     4.2   1006.8    0.00 
 145    8:00   0.10   55.4    85    1.3   264     4.8   1006.8    0.00 
 145    8:10   0.12   55.4    85    2.3   287     6.3   1006.8    0.00 
 145    8:20   0.12   55.7    84    1.5   320     5.6   1006.9    0.00 
 145    8:30   0.11   55.5    85    1.5   311     4.7   1006.9    0.00 
 145    8:40   0.08   55.6    85    1.3   311     3.7   1006.9    0.00 
 145    8:50   0.11   55.9    84    1.8   330     5.3   1007.0    0.00 
 145    9:00   0.11   55.9    84    1.7   318     5.1   1007.1    0.00 
 145    9:10   0.14   56.3    82    1.8   335     4.7   1007.0    0.00 
 145    9:20   0.16   56.3    82    2.3   350     5.2   1007.1    0.00 
 145    9:30   0.17   56.2    83    1.7   333     4.5   1007.1    0.00 
 145    9:40   0.14   56.5    82    1.1   334     3.5   1007.2    0.00 
 145    9:50   0.15   56.8    81    1.3   327     4.2   1007.2    0.00 
 145   10:00   0.21   56.4    82    3.3   345     7.1   1007.3    0.00 
 145   10:10   0.22   55.9    85    2.2   315     7.2   1007.4    0.00 
 145   10:20   0.24   56.2    84    1.8   310     4.7   1007.4    0.00 
 145   10:30   0.24   56.6    82    1.9   328     5.0   1007.4    0.00 
 145   10:40   0.28   57.1    80    2.4   342     6.2   1007.5    0.00 
 145   10:50   0.36   57.5    78    2.2   336     6.6   1007.5    0.00 
 145   11:00   0.37   58.5    74    2.0   340     4.5   1007.5    0.00 
 145   11:10   0.31   59.0    73    2.7   334     5.9   1007.5    0.00 
 145   11:20   0.41   58.0    78    2.7   330     6.4   1007.7    0.00 
 145   11:30   0.46   57.8    79    2.2   336     5.8   1007.7    0.00 
 145   11:40   0.35   58.2    78    2.1   339     5.4   1007.7    0.00 
 145   11:50   0.31   57.8    79    2.5   334     6.4   1007.7    0.00 
 145   12:00   0.27   57.7    80    2.7   331     8.6   1007.7    0.00 
 145   12:10   0.40   57.9    81    2.8   332     7.0   1007.7    0.00 
 145   12:20   0.33   57.6    81    3.0   334     7.5   1007.8    0.00 
 145   12:30   0.22   56.6    84    2.3   349     4.8   1007.9    0.00 
 145   12:40   0.28   56.2    85    2.7   336     6.1   1007.8    0.00 
 145   12:50   0.42   57.0    84    2.8   336     6.6   1007.8    0.00 
 145   13:00   0.22   57.7    81    3.3   336     7.4   1007.7    0.00 
 145   13:10   0.45   58.1    78    2.6   342     6.1   1007.7    0.00 
 145   13:20   0.53   58.7    77    3.6   346     8.3   1007.7    0.00 
 145   13:30   0.49   58.4    77    4.0   346     7.2   1007.7    0.00 
 145   13:40   0.38   57.7    80    3.2   345     6.6   1007.7    0.00 
 145   13:50   0.36   57.4    82    3.1   348     6.1   1007.7    0.00 
 145   14:00   0.40   57.8    82    1.6   353     5.4   1007.7    0.00 
 145   14:10   0.30   58.4    80    1.5   323     5.3   1007.7    0.00 
 145   14:20   0.27   57.8    81    1.8   325     4.9   1007.6    0.00 
 145   14:30   0.23   58.0    80    1.5   330     3.7   1007.4    0.00 
 145   14:40   0.33   58.5    78    2.3   338     6.0   1007.4    0.00 
 145   14:50   0.30   58.3    79    2.0   336     5.6   1007.3    0.00 
 145   15:00   0.28   58.5    78    2.0   338     4.8   1007.3    0.00 
 145   15:10   0.29   58.5    79    1.7   305     5.0   1007.2    0.00 
 145   15:20   0.25   58.5    79    1.6   294     3.9   1007.2    0.00 
 145   15:30   0.22   58.0    81    1.8   302     5.3   1007.2    0.00 
 145   15:40   0.20   57.7    82    1.4   288     4.8   1007.1    0.00 
 145   15:50   0.20   57.7    82    1.4   276     3.4   1007.0    0.00 
 145   16:00   0.19   57.9    82    1.3   268     5.0   1007.0    0.00 
 145   16:10   0.16   57.6    82    1.3   288     3.8   1007.0    0.00 
 145   16:20   0.16   57.3    83    1.2   292     4.2   1007.0    0.00 
 145   16:30   0.14   57.2    83    1.9   282     6.2   1007.0    0.00 
 145   16:40   0.13   57.1    84    1.0   294     2.9   1006.9    0.00 
 145   16:50   0.12   57.2    84    1.1   321     3.7   1006.9    0.00 
 145   17:00   0.10   56.9    84    1.5   300     4.2   1006.9    0.00 

Return to Big Creek Reserve Entrance graphs page.


Western Regional Climate Center,wrcc@dri.edu